sensor_id;sensor_type;location;lat;lon;timestamp;pressure;altitude;pressure_sealevel;temperature;humidity
44481;BME280;30184;42.018;23.670;2023-01-15T00:02:43;91756.94;;;2.75;92.44
44481;BME280;30184;42.018;23.670;2023-01-15T00:05:12;91751.22;;;2.76;92.43
44481;BME280;30184;42.018;23.670;2023-01-15T00:07:42;91755.03;;;2.79;92.50
44481;BME280;30184;42.018;23.670;2023-01-15T00:10:11;91583.34;;;1.42;92.19
44481;BME280;30184;42.018;23.670;2023-01-15T00:12:40;91762.72;;;2.84;92.53
44481;BME280;30184;42.018;23.670;2023-01-15T00:15:10;91763.88;;;2.86;92.64
44481;BME280;30184;42.018;23.670;2023-01-15T00:17:41;91742.75;;;2.71;92.48
44481;BME280;30184;42.018;23.670;2023-01-15T00:20:10;91753.81;;;2.58;92.65
44481;BME280;30184;42.018;23.670;2023-01-15T00:22:39;91688.66;;;2.44;92.47
44481;BME280;30184;42.018;23.670;2023-01-15T00:25:10;91763.88;;;2.90;92.67
44481;BME280;30184;42.018;23.670;2023-01-15T00:27:56;91766.56;;;2.90;92.97
44481;BME280;30184;42.018;23.670;2023-01-15T00:30:28;91802.19;;;2.90;92.73
44481;BME280;30184;42.018;23.670;2023-01-15T00:32:59;91763.16;;;2.93;92.73
44481;BME280;30184;42.018;23.670;2023-01-15T00:35:28;91761.22;;;2.93;92.66
44481;BME280;30184;42.018;23.670;2023-01-15T00:37:57;91768.91;;;2.95;92.54
44481;BME280;30184;42.018;23.670;2023-01-15T00:40:28;91772.59;;;2.69;92.44
44481;BME280;30184;42.018;23.670;2023-01-15T00:42:57;91773.88;;;3.00;92.53
44481;BME280;30184;42.018;23.670;2023-01-15T00:45:26;91770.06;;;3.01;92.32
44481;BME280;30184;42.018;23.670;2023-01-15T00:47:55;91707.50;;;2.61;92.27
44481;BME280;30184;42.018;23.670;2023-01-15T00:50:24;91752.03;;;2.98;92.27
44481;BME280;30184;42.018;23.670;2023-01-15T00:52:53;91760.50;;;3.07;92.29
44481;BME280;30184;42.018;23.670;2023-01-15T00:55:22;91799.94;;;2.96;92.26
44481;BME280;30184;42.018;23.670;2023-01-15T00:57:53;91781.97;;;3.11;92.20
44481;BME280;30184;42.018;23.670;2023-01-15T01:00:22;91687.63;;;2.73;92.28
44481;BME280;30184;42.018;23.670;2023-01-15T01:02:51;91761.69;;;3.13;92.04
44481;BME280;30184;42.018;23.670;2023-01-15T01:05:20;91760.56;;;3.14;91.96
44481;BME280;30184;42.018;23.670;2023-01-15T01:07:50;91761.31;;;3.15;91.67
44481;BME280;30184;42.018;23.670;2023-01-15T01:10:19;91795.75;;;3.09;91.75
44481;BME280;30184;42.018;23.670;2023-01-15T01:12:48;91758.25;;;3.16;91.66
44481;BME280;30184;42.018;23.670;2023-01-15T01:15:21;91615.84;;;2.10;91.63
44481;BME280;30184;42.018;23.670;2023-01-15T01:17:52;91711.06;;;2.90;91.41
44481;BME280;30184;42.018;23.670;2023-01-15T01:20:21;91800.41;;;3.19;91.52
44481;BME280;30184;42.018;23.670;2023-01-15T01:22:50;91737.94;;;3.12;91.62
44481;BME280;30184;42.018;23.670;2023-01-15T01:25:20;91693.03;;;2.80;91.42
44481;BME280;30184;42.018;23.670;2023-01-15T01:27:49;91765.56;;;3.23;91.65
44481;BME280;30184;42.018;23.670;2023-01-15T01:30:19;91654.69;;;2.58;91.62
44481;BME280;30184;42.018;23.670;2023-01-15T01:32:49;91733.72;;;3.11;91.66
44481;BME280;30184;42.018;23.670;2023-01-15T01:35:18;91747.16;;;3.25;91.72
44481;BME280;30184;42.018;23.670;2023-01-15T01:37:48;91694.63;;;2.95;91.71
44481;BME280;30184;42.018;23.670;2023-01-15T01:40:18;91732.22;;;3.27;91.55
44481;BME280;30184;42.018;23.670;2023-01-15T01:42:47;91728.41;;;3.28;91.59
44481;BME280;30184;42.018;23.670;2023-01-15T01:45:20;91724.16;;;3.20;91.43
44481;BME280;30184;42.018;23.670;2023-01-15T01:47:53;91731.47;;;3.30;91.26
44481;BME280;30184;42.018;23.670;2023-01-15T01:50:24;91736.81;;;3.27;91.18
44481;BME280;30184;42.018;23.670;2023-01-15T01:52:58;91732.59;;;3.22;91.28
44481;BME280;30184;42.018;23.670;2023-01-15T01:55:31;91595.25;;;2.28;91.11
44481;BME280;30184;42.018;23.670;2023-01-15T01:58:03;91628.59;;;2.38;91.33
44481;BME280;30184;42.018;23.670;2023-01-15T02:00:37;91679.22;;;2.78;91.38
44481;BME280;30184;42.018;23.670;2023-01-15T02:03:10;91496.44;;;1.08;91.30
44481;BME280;30184;42.018;23.670;2023-01-15T02:05:42;91561.53;;;1.40;91.49
44481;BME280;30184;42.018;23.670;2023-01-15T02:08:14;91609.81;;;1.62;91.48
44481;BME280;30184;42.018;23.670;2023-01-15T02:10:43;91742.91;;;3.17;91.70
44481;BME280;30184;42.018;23.670;2023-01-15T02:13:15;91754.41;;;3.17;91.48
44481;BME280;30184;42.018;23.670;2023-01-15T02:15:51;91732.59;;;3.19;91.49
44481;BME280;30184;42.018;23.670;2023-01-15T02:18:29;91729.94;;;3.22;91.60
44481;BME280;30184;42.018;23.670;2023-01-15T02:21:04;91665.41;;;2.69;91.18
44481;BME280;30184;42.018;23.670;2023-01-15T02:23:57;91735.28;;;3.26;91.32
44481;BME280;30184;42.018;23.670;2023-01-15T02:29:49;91731.47;;;3.27;90.99
44481;BME280;30184;42.018;23.670;2023-01-15T02:32:28;91732.22;;;3.27;90.86
44481;BME280;30184;42.018;23.670;2023-01-15T02:35:03;91585.13;;;1.86;90.81
44481;BME280;30184;42.018;23.670;2023-01-15T02:37:38;91732.22;;;3.27;91.06
44481;BME280;30184;42.018;23.670;2023-01-15T02:40:10;91725.72;;;3.28;90.84
44481;BME280;30184;42.018;23.670;2023-01-15T02:42:42;91721.50;;;3.27;90.74
44481;BME280;30184;42.018;23.670;2023-01-15T02:45:16;91723.03;;;3.28;90.53
44481;BME280;30184;42.018;23.670;2023-01-15T02:47:53;91731.84;;;3.29;90.28
44481;BME280;30184;42.018;23.670;2023-01-15T02:50:25;91728.03;;;3.30;90.16
44481;BME280;30184;42.018;23.670;2023-01-15T02:53:02;91697.72;;;3.05;89.92
44481;BME280;30184;42.018;23.670;2023-01-15T02:55:39;91722.25;;;3.14;89.90
44481;BME280;30184;42.018;23.670;2023-01-15T02:58:15;91781.28;;;3.31;89.79
44481;BME280;30184;42.018;23.670;2023-01-15T03:00:50;91719.59;;;3.31;89.72
44481;BME280;30184;42.018;23.670;2023-01-15T03:03:27;91720.00;;;3.33;89.88
44481;BME280;30184;42.018;23.670;2023-01-15T03:06:03;91639.72;;;2.54;89.83
44481;BME280;30184;42.018;23.670;2023-01-15T03:08:34;91697.72;;;3.15;90.16
44481;BME280;30184;42.018;23.670;2023-01-15T03:11:06;91728.41;;;3.35;90.46
44481;BME280;30184;42.018;23.670;2023-01-15T03:13:46;91728.41;;;3.35;90.50
44481;BME280;30184;42.018;23.670;2023-01-15T03:16:21;91733.00;;;3.35;90.62
44481;BME280;30184;42.018;23.670;2023-01-15T03:19:09;91637.09;;;2.72;90.45
44481;BME280;30184;42.018;23.670;2023-01-15T03:21:46;91738.38;;;3.35;90.52
44481;BME280;30184;42.018;23.670;2023-01-15T03:24:23;91715.38;;;3.27;90.41
44481;BME280;30184;42.018;23.670;2023-01-15T03:26:52;91728.41;;;3.35;90.24
44481;BME280;30184;42.018;23.670;2023-01-15T03:29:23;91624.38;;;2.40;89.90
44481;BME280;30184;42.018;23.670;2023-01-15T03:31:55;91728.41;;;3.35;90.14
44481;BME280;30184;42.018;23.670;2023-01-15T03:34:27;91728.41;;;3.35;90.23
44481;BME280;30184;42.018;23.670;2023-01-15T03:36:57;91720.75;;;3.37;89.96
44481;BME280;30184;42.018;23.670;2023-01-15T03:39:28;91717.31;;;3.37;90.09
44481;BME280;30184;42.018;23.670;2023-01-15T03:42:18;91726.13;;;3.37;90.06
44481;BME280;30184;42.018;23.670;2023-01-15T03:44:54;91715.38;;;3.37;89.90
44481;BME280;30184;42.018;23.670;2023-01-15T03:47:29;91723.06;;;3.39;89.82
44481;BME280;30184;42.018;23.670;2023-01-15T03:50:04;91719.59;;;3.38;89.56
44481;BME280;30184;42.018;23.670;2023-01-15T03:52:44;91731.94;;;2.49;89.29
44481;BME280;30184;42.018;23.670;2023-01-15T03:55:18;91747.56;;;3.37;89.37
44481;BME280;30184;42.018;23.670;2023-01-15T03:57:59;91728.41;;;3.35;89.28
44481;BME280;30184;42.018;23.670;2023-01-15T04:00:36;91686.97;;;3.01;89.54
44481;BME280;30184;42.018;23.670;2023-01-15T04:03:09;91624.44;;;2.58;89.54
44481;BME280;30184;42.018;23.670;2023-01-15T04:05:41;91742.19;;;3.30;89.47
44481;BME280;30184;42.018;23.670;2023-01-15T04:08:12;91736.81;;;3.27;89.78
44481;BME280;30184;42.018;23.670;2023-01-15T04:10:51;91629.00;;;2.54;89.75
44481;BME280;30184;42.018;23.670;2023-01-15T04:13:21;91737.56;;;3.17;89.90
44481;BME280;30184;42.018;23.670;2023-01-15T04:15:53;91548.63;;;1.49;90.00
44481;BME280;30184;42.018;23.670;2023-01-15T04:18:25;91781.59;;;3.05;90.67
44481;BME280;30184;42.018;23.670;2023-01-15T04:20:54;91703.66;;;2.55;90.68
44481;BME280;30184;42.018;23.670;2023-01-15T04:23:24;91730.63;;;3.02;90.83
44481;BME280;30184;42.018;23.670;2023-01-15T04:25:53;91734.44;;;3.00;90.78
44481;BME280;30184;42.018;23.670;2023-01-15T04:28:22;91740.56;;;2.97;90.77
44481;BME280;30184;42.018;23.670;2023-01-15T04:30:51;91739.03;;;2.93;90.86
44481;BME280;30184;42.018;23.670;2023-01-15T04:33:20;91738.59;;;2.87;91.26
44481;BME280;30184;42.018;23.670;2023-01-15T04:35:50;91738.19;;;2.82;91.33
44481;BME280;30184;42.018;23.670;2023-01-15T04:38:19;91752.75;;;2.77;91.56
44481;BME280;30184;42.018;23.670;2023-01-15T04:40:48;91742.75;;;2.71;91.74
44481;BME280;30184;42.018;23.670;2023-01-15T04:43:34;91745.03;;;2.65;91.74
44481;BME280;30184;42.018;23.670;2023-01-15T04:46:22;91602.22;;;1.64;91.73
44481;BME280;30184;42.018;23.670;2023-01-15T04:48:51;91714.22;;;2.27;91.67
44481;BME280;30184;42.018;23.670;2023-01-15T04:51:22;91791.69;;;2.57;92.00
44481;BME280;30184;42.018;23.670;2023-01-15T04:53:51;91805.97;;;2.20;92.04
44481;BME280;30184;42.018;23.670;2023-01-15T04:56:20;91766.41;;;2.54;92.17
44481;BME280;30184;42.018;23.670;2023-01-15T04:58:49;91758.31;;;2.51;92.19
44481;BME280;30184;42.018;23.670;2023-01-15T05:01:19;91629.34;;;1.69;92.13
44481;BME280;30184;42.018;23.670;2023-01-15T05:03:48;91758.72;;;2.49;92.14
44481;BME280;30184;42.018;23.670;2023-01-15T05:06:17;91749.81;;;2.31;92.05
44481;BME280;30184;42.018;23.670;2023-01-15T05:08:47;91757.97;;;2.49;92.27
44481;BME280;30184;42.018;23.670;2023-01-15T05:11:16;91737.91;;;2.21;92.40
44481;BME280;30184;42.018;23.670;2023-01-15T05:13:46;91716.06;;;2.16;92.43
44481;BME280;30184;42.018;23.670;2023-01-15T05:16:16;91762.88;;;2.40;92.38
44481;BME280;30184;42.018;23.670;2023-01-15T05:18:46;91814.19;;;2.49;92.35
44481;BME280;30184;42.018;23.670;2023-01-15T05:21:16;91677.63;;;1.83;92.49
44481;BME280;30184;42.018;23.670;2023-01-15T05:23:51;91774.78;;;2.49;92.50
44481;BME280;30184;42.018;23.670;2023-01-15T05:26:21;91776.31;;;2.50;92.79
44481;BME280;30184;42.018;23.670;2023-01-15T05:28:53;91769.44;;;2.49;92.84
44481;BME280;30184;42.018;23.670;2023-01-15T05:31:23;91777.06;;;2.47;92.84
44481;BME280;30184;42.018;23.670;2023-01-15T05:33:53;91709.84;;;2.01;92.80
44481;BME280;30184;42.018;23.670;2023-01-15T05:36:24;91591.44;;;1.02;92.74
44481;BME280;30184;42.018;23.670;2023-01-15T05:38:56;91766.72;;;2.46;92.93
44481;BME280;30184;42.018;23.670;2023-01-15T05:41:29;91471.88;;;0.37;92.65
44481;BME280;30184;42.018;23.670;2023-01-15T05:44:17;91538.66;;;0.88;92.76
44481;BME280;30184;42.018;23.670;2023-01-15T05:46:47;91771.63;;;2.33;92.98
44481;BME280;30184;42.018;23.670;2023-01-15T05:49:18;91708.06;;;1.65;93.05
44481;BME280;30184;42.018;23.670;2023-01-15T05:51:48;91724.34;;;1.97;93.17
44481;BME280;30184;42.018;23.670;2023-01-15T05:54:20;91767.72;;;2.20;93.40
44481;BME280;30184;42.018;23.670;2023-01-15T05:56:50;91678.50;;;1.47;93.40
44481;BME280;30184;42.018;23.670;2023-01-15T05:59:20;91748.41;;;1.93;93.58
44481;BME280;30184;42.018;23.670;2023-01-15T06:01:50;91722.56;;;1.64;93.95
44481;BME280;30184;42.018;23.670;2023-01-15T06:04:21;91772.13;;;1.95;94.35
44481;BME280;30184;42.018;23.670;2023-01-15T06:06:52;91671.53;;;0.95;94.21
44481;BME280;30184;42.018;23.670;2023-01-15T06:09:24;91666.38;;;1.16;94.36
44481;BME280;30184;42.018;23.670;2023-01-15T06:11:54;91769.69;;;1.79;94.79
44481;BME280;30184;42.018;23.670;2023-01-15T06:14:24;91769.66;;;1.75;94.75
44481;BME280;30184;42.018;23.670;2023-01-15T06:16:53;91703.50;;;1.25;94.61
44481;BME280;30184;42.018;23.670;2023-01-15T06:19:22;91769.22;;;1.66;95.04
44481;BME280;30184;42.018;23.670;2023-01-15T06:21:51;91737.53;;;1.31;95.01
44481;BME280;30184;42.018;23.670;2023-01-15T06:24:20;91757.59;;;1.48;95.10
44481;BME280;30184;42.018;23.670;2023-01-15T06:26:51;91773.28;;;1.53;95.17
44481;BME280;30184;42.018;23.670;2023-01-15T06:29:20;91789.28;;;1.49;95.21
44481;BME280;30184;42.018;23.670;2023-01-15T06:31:49;91773.22;;;1.46;95.39
44481;BME280;30184;42.018;23.670;2023-01-15T06:34:18;91753.94;;;1.26;95.45
44481;BME280;30184;42.018;23.670;2023-01-15T06:36:47;91777.72;;;1.38;95.83
44481;BME280;30184;42.018;23.670;2023-01-15T06:39:16;91786.13;;;1.37;95.83
44481;BME280;30184;42.018;23.670;2023-01-15T06:41:45;91783.81;;;1.35;96.00
44481;BME280;30184;42.018;23.670;2023-01-15T06:44:33;91785.72;;;1.35;96.07
44481;BME280;30184;42.018;23.670;2023-01-15T06:47:28;91676.97;;;0.68;96.08
44481;BME280;30184;42.018;23.670;2023-01-15T06:49:57;91782.69;;;1.36;96.19
44481;BME280;30184;42.018;23.670;2023-01-15T06:52:28;91669.59;;;0.55;96.22
44481;BME280;30184;42.018;23.670;2023-01-15T06:54:57;91786.13;;;1.37;96.36
44481;BME280;30184;42.018;23.670;2023-01-15T06:57:26;91720.66;;;0.83;96.28
44481;BME280;30184;42.018;23.670;2023-01-15T06:59:56;91796.03;;;1.36;96.39
44481;BME280;30184;42.018;23.670;2023-01-15T07:02:25;91717.69;;;0.92;96.42
44481;BME280;30184;42.018;23.670;2023-01-15T07:04:55;91796.03;;;1.36;96.58
44481;BME280;30184;42.018;23.670;2023-01-15T07:07:26;91794.13;;;1.37;96.64
44481;BME280;30184;42.018;23.670;2023-01-15T07:09:55;91787.25;;;1.36;96.69
44481;BME280;30184;42.018;23.670;2023-01-15T07:12:25;91678.81;;;0.61;96.49
44481;BME280;30184;42.018;23.670;2023-01-15T07:14:54;91782.25;;;1.34;96.58
44481;BME280;30184;42.018;23.670;2023-01-15T07:17:25;91780.72;;;1.33;96.64
44481;BME280;30184;42.018;23.670;2023-01-15T07:19:54;91776.16;;;1.34;96.63
44481;BME280;30184;42.018;23.670;2023-01-15T07:22:23;91779.81;;;1.19;96.74
44481;BME280;30184;42.018;23.670;2023-01-15T07:24:53;91736.53;;;1.06;96.82
44481;BME280;30184;42.018;23.670;2023-01-15T07:27:22;91783.81;;;1.35;96.84
44481;BME280;30184;42.018;23.670;2023-01-15T07:29:52;91706.06;;;0.77;96.69
44481;BME280;30184;42.018;23.670;2023-01-15T07:32:21;91687.38;;;0.77;96.89
44481;BME280;30184;42.018;23.670;2023-01-15T07:34:51;91789.06;;;1.65;97.43
44481;BME280;30184;42.018;23.670;2023-01-15T07:37:20;91748.78;;;1.47;97.61
44481;BME280;30184;42.018;23.670;2023-01-15T07:39:49;91751.03;;;1.90;97.62
44481;BME280;30184;42.018;23.670;2023-01-15T07:42:18;91778.09;;;2.29;97.65
44481;BME280;30184;42.018;23.670;2023-01-15T07:45:07;91772.13;;;2.49;97.06
44481;BME280;30184;42.018;23.670;2023-01-15T07:47:53;91742.66;;;2.49;96.55
44481;BME280;30184;42.018;23.670;2023-01-15T07:50:42;91771.56;;;2.91;94.79
44481;BME280;30184;42.018;23.670;2023-01-15T07:53:11;91774.31;;;3.06;93.46
44481;BME280;30184;42.018;23.670;2023-01-15T07:55:40;91751.69;;;3.03;92.03
44481;BME280;30184;42.018;23.670;2023-01-15T07:58:09;91766.31;;;3.27;90.31
44481;BME280;30184;42.018;23.670;2023-01-15T08:00:38;91776.34;;;3.41;89.05
44481;BME280;30184;42.018;23.670;2023-01-15T08:03:08;91780.94;;;3.54;88.27
44481;BME280;30184;42.018;23.670;2023-01-15T08:05:42;91763.34;;;3.64;87.35
44481;BME280;30184;42.018;23.670;2023-01-15T08:08:13;91784.06;;;3.74;86.09
44481;BME280;30184;42.018;23.670;2023-01-15T08:10:43;91777.53;;;3.75;85.58
44481;BME280;30184;42.018;23.670;2023-01-15T08:13:26;91781.72;;;3.62;85.00
44481;BME280;30184;42.018;23.670;2023-01-15T08:16:13;91546.81;;;1.64;84.76
44481;BME280;30184;42.018;23.670;2023-01-15T08:18:43;91585.63;;;2.09;84.87
44481;BME280;30184;42.018;23.670;2023-01-15T08:21:15;91785.88;;;3.31;85.33
44481;BME280;30184;42.018;23.670;2023-01-15T08:23:46;91783.59;;;3.36;85.92
44481;BME280;30184;42.018;23.670;2023-01-15T08:26:17;91785.94;;;3.52;85.83
44481;BME280;30184;42.018;23.670;2023-01-15T08:28:46;91787.50;;;3.74;85.79
44481;BME280;30184;42.018;23.670;2023-01-15T08:31:15;91790.22;;;3.89;84.82
44481;BME280;30184;42.018;23.670;2023-01-15T08:33:44;91767.97;;;3.92;84.16
44481;BME280;30184;42.018;23.670;2023-01-15T08:36:14;91776.81;;;4.21;83.60
44481;BME280;30184;42.018;23.670;2023-01-15T08:38:44;91779.88;;;4.23;82.66
44481;BME280;30184;42.018;23.670;2023-01-15T08:41:16;91782.16;;;4.10;82.32
44481;BME280;30184;42.018;23.670;2023-01-15T08:43:45;91794.44;;;4.11;82.16
44481;BME280;30184;42.018;23.670;2023-01-15T08:46:14;91708.88;;;3.38;82.92
44481;BME280;30184;42.018;23.670;2023-01-15T08:48:44;91744.94;;;4.08;82.88
44481;BME280;30184;42.018;23.670;2023-01-15T08:51:16;91692.81;;;4.06;82.27
44481;BME280;30184;42.018;23.670;2023-01-15T08:53:45;91763.28;;;4.77;81.73
44481;BME280;30184;42.018;23.670;2023-01-15T08:56:16;91768.22;;;5.00;81.31
44481;BME280;30184;42.018;23.670;2023-01-15T08:58:45;91796.97;;;5.21;80.38
44481;BME280;30184;42.018;23.670;2023-01-15T09:01:15;91763.03;;;5.45;79.38
44481;BME280;30184;42.018;23.670;2023-01-15T09:03:44;91764.84;;;5.66;78.29
44481;BME280;30184;42.018;23.670;2023-01-15T09:06:13;91759.38;;;5.83;76.47
44481;BME280;30184;42.018;23.670;2023-01-15T09:08:44;91751.19;;;6.01;75.88
44481;BME280;30184;42.018;23.670;2023-01-15T09:11:13;91753.69;;;6.29;74.87
44481;BME280;30184;42.018;23.670;2023-01-15T09:13:42;91755.00;;;6.52;74.14
44481;BME280;30184;42.018;23.670;2023-01-15T09:16:13;91746.31;;;6.74;74.06
44481;BME280;30184;42.018;23.670;2023-01-15T09:18:44;91723.28;;;6.66;72.06
44481;BME280;30184;42.018;23.670;2023-01-15T09:21:14;91737.50;;;6.70;71.73
44481;BME280;30184;42.018;23.670;2023-01-15T09:23:45;91714.28;;;6.43;70.92
44481;BME280;30184;42.018;23.670;2023-01-15T09:26:26;91689.94;;;6.09;70.92
44481;BME280;30184;42.018;23.670;2023-01-15T09:28:56;91728.59;;;6.32;70.84
44481;BME280;30184;42.018;23.670;2023-01-15T09:31:25;91744.72;;;5.88;70.92
44481;BME280;30184;42.018;23.670;2023-01-15T09:33:56;91731.44;;;6.18;71.53
44481;BME280;30184;42.018;23.670;2023-01-15T09:36:27;91719.56;;;6.09;71.95
44481;BME280;30184;42.018;23.670;2023-01-15T09:38:59;91712.03;;;6.38;72.20
44481;BME280;30184;42.018;23.670;2023-01-15T09:41:44;91604.91;;;5.59;70.81
44481;BME280;30184;42.018;23.670;2023-01-15T09:44:41;91705.50;;;7.06;69.60
44481;BME280;30184;42.018;23.670;2023-01-15T09:47:15;91704.78;;;7.33;65.18
44481;BME280;30184;42.018;23.670;2023-01-15T09:49:56;91696.75;;;7.60;64.68
44481;BME280;30184;42.018;23.670;2023-01-15T09:52:41;91693.16;;;7.93;62.88
44481;BME280;30184;42.018;23.670;2023-01-15T09:55:20;91689.94;;;8.02;61.09
44481;BME280;30184;42.018;23.670;2023-01-15T09:57:54;91688.28;;;8.08;60.92
44481;BME280;30184;42.018;23.670;2023-01-15T10:00:26;91727.38;;;7.76;60.24
44481;BME280;30184;42.018;23.670;2023-01-15T10:02:58;91694.94;;;8.03;62.09
44481;BME280;30184;42.018;23.670;2023-01-15T10:05:35;91654.44;;;7.49;62.97
44481;BME280;30184;42.018;23.670;2023-01-15T10:08:12;91672.78;;;8.12;61.91
44481;BME280;30184;42.018;23.670;2023-01-15T10:10:45;91663.31;;;8.23;62.50
44481;BME280;30184;42.018;23.670;2023-01-15T10:13:21;91637.56;;;7.92;61.99
44481;BME280;30184;42.018;23.670;2023-01-15T10:15:55;91656.94;;;8.37;61.65
44481;BME280;30184;42.018;23.670;2023-01-15T10:18:26;91646.94;;;8.34;61.63
44481;BME280;30184;42.018;23.670;2023-01-15T10:23:53;91646.13;;;8.37;58.56
44481;BME280;30184;42.018;23.670;2023-01-15T10:26:35;91639.41;;;8.22;56.86
44481;BME280;30184;42.018;23.670;2023-01-15T10:29:12;91643.63;;;8.23;55.85
44481;BME280;30184;42.018;23.670;2023-01-15T10:31:50;91638.00;;;8.14;57.56
44481;BME280;30184;42.018;23.670;2023-01-15T10:37:30;91624.81;;;8.16;58.87
44481;BME280;30184;42.018;23.670;2023-01-15T10:40:16;91621.31;;;8.19;57.77
44481;BME280;30184;42.018;23.670;2023-01-15T10:42:54;91618.03;;;8.31;58.04
44481;BME280;30184;42.018;23.670;2023-01-15T10:45:29;91494.94;;;7.60;56.81
44481;BME280;30184;42.018;23.670;2023-01-15T10:48:04;91522.06;;;7.76;56.82
44481;BME280;30184;42.018;23.670;2023-01-15T10:50:34;91533.19;;;8.02;55.23
44481;BME280;30184;42.018;23.670;2023-01-15T10:53:10;91546.84;;;8.38;55.30
44481;BME280;30184;42.018;23.670;2023-01-15T10:55:43;91530.66;;;8.54;54.98
44481;BME280;30184;42.018;23.670;2023-01-15T10:58:23;91461.69;;;8.26;53.86
44481;BME280;30184;42.018;23.670;2023-01-15T11:00:59;91578.34;;;9.04;53.54
44481;BME280;30184;42.018;23.670;2023-01-15T11:03:34;91469.75;;;8.49;53.20
44481;BME280;30184;42.018;23.670;2023-01-15T11:06:06;91580.00;;;9.17;52.19
44481;BME280;30184;42.018;23.670;2023-01-15T11:08:41;91491.75;;;8.68;52.14
44481;BME280;30184;42.018;23.670;2023-01-15T11:11:33;91455.38;;;8.52;51.84
44481;BME280;30184;42.018;23.670;2023-01-15T11:14:36;91540.31;;;9.27;50.06
44481;BME280;30184;42.018;23.670;2023-01-15T11:17:25;91524.22;;;9.04;50.79
44481;BME280;30184;42.018;23.670;2023-01-15T11:20:21;91296.03;;;7.54;50.20
44481;BME280;30184;42.018;23.670;2023-01-15T11:22:54;91473.50;;;8.72;49.89
44481;BME280;30184;42.018;23.670;2023-01-15T11:25:26;91550.78;;;9.45;51.45
44481;BME280;30184;42.018;23.670;2023-01-15T11:27:56;91550.25;;;9.50;50.69
44481;BME280;30184;42.018;23.670;2023-01-15T11:30:30;91541.72;;;9.51;50.16
44481;BME280;30184;42.018;23.670;2023-01-15T11:33:01;91546.53;;;9.44;49.71
44481;BME280;30184;42.018;23.670;2023-01-15T11:35:33;91542.81;;;9.54;50.62
44481;BME280;30184;42.018;23.670;2023-01-15T11:38:06;91435.13;;;8.77;50.91
44481;BME280;30184;42.018;23.670;2023-01-15T11:40:35;91579.72;;;9.64;49.52
44481;BME280;30184;42.018;23.670;2023-01-15T11:43:19;91521.47;;;9.88;49.11
44481;BME280;30184;42.018;23.670;2023-01-15T11:46:22;91245.53;;;8.22;48.50
44481;BME280;30184;42.018;23.670;2023-01-15T11:49:10;91521.50;;;10.01;47.56
44481;BME280;30184;42.018;23.670;2023-01-15T11:51:56;91513.47;;;9.97;47.44
44481;BME280;30184;42.018;23.670;2023-01-15T11:54:26;91470.16;;;9.65;47.41
44481;BME280;30184;42.018;23.670;2023-01-15T11:56:57;91515.88;;;9.79;47.59
44481;BME280;30184;42.018;23.670;2023-01-15T11:59:28;91512.25;;;9.69;47.84
44481;BME280;30184;42.018;23.670;2023-01-15T12:02:00;91515.53;;;9.28;48.37
44481;BME280;30184;42.018;23.670;2023-01-15T12:04:36;91440.72;;;8.86;48.64
44481;BME280;30184;42.018;23.670;2023-01-15T12:07:11;91512.41;;;9.30;49.26
44481;BME280;30184;42.018;23.670;2023-01-15T12:09:53;91380.81;;;8.15;50.88
44481;BME280;30184;42.018;23.670;2023-01-15T12:12:39;91465.03;;;8.14;50.99
44481;BME280;30184;42.018;23.670;2023-01-15T12:15:29;91500.31;;;8.82;51.35
44481;BME280;30184;42.018;23.670;2023-01-15T12:18:21;91499.47;;;8.69;51.46
44481;BME280;30184;42.018;23.670;2023-01-15T12:21:02;91497.94;;;8.68;52.16
44481;BME280;30184;42.018;23.670;2023-01-15T12:24:06;91493.53;;;8.74;53.04
44481;BME280;30184;42.018;23.670;2023-01-15T12:26:41;91493.47;;;8.78;52.36
44481;BME280;30184;42.018;23.670;2023-01-15T12:29:21;91318.03;;;7.32;51.40
44481;BME280;30184;42.018;23.670;2023-01-15T12:31:56;91421.97;;;8.23;52.60
44481;BME280;30184;42.018;23.670;2023-01-15T12:34:38;91546.13;;;8.53;51.78
44481;BME280;30184;42.018;23.670;2023-01-15T12:37:12;91239.06;;;5.99;51.87
44481;BME280;30184;42.018;23.670;2023-01-15T12:39:51;91490.97;;;8.31;52.44
44481;BME280;30184;42.018;23.670;2023-01-15T12:42:23;91354.09;;;7.42;53.14
44481;BME280;30184;42.018;23.670;2023-01-15T12:45:14;91501.84;;;7.84;53.74
44481;BME280;30184;42.018;23.670;2023-01-15T12:47:50;91478.59;;;7.91;54.86
44481;BME280;30184;42.018;23.670;2023-01-15T12:50:31;91394.38;;;7.33;55.53
44481;BME280;30184;42.018;23.670;2023-01-15T12:53:09;91410.69;;;7.26;57.14
44481;BME280;30184;42.018;23.670;2023-01-15T12:55:45;91394.03;;;7.31;58.66
44481;BME280;30184;42.018;23.670;2023-01-15T12:58:31;91470.47;;;7.91;58.88
44481;BME280;30184;42.018;23.670;2023-01-15T13:01:12;91461.06;;;7.99;57.86
44481;BME280;30184;42.018;23.670;2023-01-15T13:03:50;91452.47;;;8.04;57.45
44481;BME280;30184;42.018;23.670;2023-01-15T13:06:23;91445.81;;;8.08;57.39
44481;BME280;30184;42.018;23.670;2023-01-15T13:08:59;91339.84;;;7.41;56.54
44481;BME280;30184;42.018;23.670;2023-01-15T13:11:30;91484.41;;;8.09;55.10
44481;BME280;30184;42.018;23.670;2023-01-15T13:14:00;91446.31;;;8.23;56.13
44481;BME280;30184;42.018;23.670;2023-01-15T13:16:37;91451.72;;;8.23;56.18
44481;BME280;30184;42.018;23.670;2023-01-15T13:19:22;91452.03;;;8.25;55.05
44481;BME280;30184;42.018;23.670;2023-01-15T13:21:56;91393.75;;;7.68;54.73
44481;BME280;30184;42.018;23.670;2023-01-15T13:24:56;91451.03;;;8.39;55.44
44481;BME280;30184;42.018;23.670;2023-01-15T13:27:44;91423.91;;;8.22;55.76
44481;BME280;30184;42.018;23.670;2023-01-15T13:30:26;91479.19;;;8.41;57.18
44481;BME280;30184;42.018;23.670;2023-01-15T13:33:11;91455.81;;;8.31;56.89
44481;BME280;30184;42.018;23.670;2023-01-15T13:35:47;91439.44;;;8.38;56.39
44481;BME280;30184;42.018;23.670;2023-01-15T13:38:20;91270.34;;;7.26;58.48
44481;BME280;30184;42.018;23.670;2023-01-15T13:40:52;91347.13;;;7.64;58.12
44481;BME280;30184;42.018;23.670;2023-01-15T13:43:31;91440.81;;;8.27;58.37
44481;BME280;30184;42.018;23.670;2023-01-15T13:46:03;91306.81;;;7.34;57.60